TimeCST,TemperatureF,Dew PointF,Humidity,Sea Level PressureIn,VisibilityMPH,Wind Direction,Wind SpeedMPH,Gust SpeedMPH,PrecipitationIn,Events,Conditions,WindDirDegrees,DateUTC
12:52 AM,12.0,7.0,80,30.25,10.0,SSE,6.9,-,N/A,,Clear,160,2013-01-23 06:52:00
1:52 AM,12.9,7.0,77,30.24,10.0,SE,8.1,-,N/A,,Clear,140,2013-01-23 07:52:00
2:52 AM,10.9,6.1,81,30.24,10.0,South,3.5,-,N/A,,Clear,170,2013-01-23 08:52:00
3:52 AM,9.0,5.0,84,30.22,10.0,East,3.5,-,N/A,,Clear,100,2013-01-23 09:52:00
4:52 AM,10.0,5.0,80,30.21,10.0,East,3.5,-,N/A,,Clear,90,2013-01-23 10:52:00
5:52 AM,9.0,6.1,88,30.23,10.0,Calm,Calm,-,N/A,,Clear,0,2013-01-23 11:52:00
6:52 AM,10.0,5.0,80,30.23,10.0,Calm,Calm,-,N/A,,Clear,0,2013-01-23 12:52:00
7:52 AM,12.9,8.1,81,30.26,10.0,NW,8.1,-,N/A,,Clear,320,2013-01-23 13:52:00
8:52 AM,14.0,9.0,80,30.29,10.0,NNW,9.2,-,N/A,,Clear,330,2013-01-23 14:52:00
9:52 AM,17.1,10.0,74,30.31,10.0,NW,10.4,-,N/A,,Clear,320,2013-01-23 15:52:00
10:52 AM,19.9,12.0,71,30.34,10.0,NNW,11.5,-,N/A,,Clear,330,2013-01-23 16:52:00
11:52 AM,25.0,15.1,66,30.35,10.0,North,15.0,-,N/A,,Clear,350,2013-01-23 17:52:00
12:52 PM,24.1,14.0,65,30.35,10.0,NNW,19.6,-,N/A,,Clear,330,2013-01-23 18:52:00
1:52 PM,25.0,12.9,60,30.35,10.0,NNW,19.6,-,N/A,,Clear,340,2013-01-23 19:52:00
2:52 PM,23.0,12.0,63,30.38,10.0,North,18.4,-,N/A,,Clear,360,2013-01-23 20:52:00
3:52 PM,21.9,10.0,60,30.41,10.0,North,15.0,-,N/A,,Clear,350,2013-01-23 21:52:00
4:52 PM,19.0,6.1,57,30.46,10.0,North,17.3,-,N/A,,Clear,360,2013-01-23 22:52:00
5:52 PM,17.1,6.1,62,30.49,10.0,North,18.4,-,N/A,,Clear,350,2013-01-23 23:52:00
6:52 PM,14.0,1.4,57,30.44,10.0,North,16.1,24.2,N/A,,Clear,10,2013-01-24 00:52:00
7:52 PM,12.0,1.9,64,30.55,10.0,North,11.5,-,N/A,,Clear,10,2013-01-24 01:52:00
8:52 PM,9.0,-0.0,67,30.56,10.0,North,13.8,-,N/A,,Clear,10,2013-01-24 02:52:00
9:52 PM,6.1,-5.1,60,30.59,10.0,NNE,13.8,-,N/A,,Clear,20,2013-01-24 03:52:00
10:52 PM,3.9,-8.0,58,30.62,10.0,NNE,12.7,-,N/A,,Clear,30,2013-01-24 04:52:00
11:52 PM,1.9,-9.0,60,30.63,10.0,NNE,12.7,-,N/A,,Clear,30,2013-01-24 05:52:00